Time;durP1;ratioP1;P1;durP2;ratioP2;P2;SDS_P1;SDS_P2;PMS_P1;PMS_P2;Temp;Humidity;BMP_temperature;BMP_pressure;BME280_temperature;BME280_humidity;BME280_pressure;Samples;Min_cycle;Max_cycle;Signal;HPM_P1;HPM_P2
2022/10/23 00:02:26;;;;;;;3.22;2.95;;;;;;;;;;5059894;28;20049;-84
2022/10/23 00:04:52;;;;;;;3.65;3.33;;;;;;;;;;5074064;28;20452;-84
2022/10/23 00:07:19;;;;;;;2.58;1.58;;;;;;;;;;5073823;28;20048;-84
2022/10/23 00:09:45;;;;;;;4.28;3.97;;;;;;;;;;5074034;28;20048;-85
2022/10/23 00:12:12;;;;;;;3.05;2.85;;;;;;;;;;5073755;28;20110;-84
2022/10/23 00:14:39;;;;;;;3.05;2.80;;;;;;;;;;5073994;28;20438;-85
2022/10/23 00:17:06;;;;;;;2.88;2.67;;;;;;;;;;5073419;28;20500;-84
2022/10/23 00:19:32;;;;;;;4.50;4.20;;;;;;;;;;5072887;28;20049;-84
2022/10/23 00:21:59;;;;;;;2.47;2.28;;;;;;;;;;5073512;28;20102;-84
2022/10/23 00:24:25;;;;;;;3.70;3.42;;;;;;;;;;5073874;28;20562;-84
2022/10/23 00:26:52;;;;;;;8.40;2.63;;;;;;;;;;5073584;28;20048;-85
2022/10/23 00:29:18;;;;;;;6.30;3.13;;;;;;;;;;5072960;28;20048;-84
2022/10/23 00:31:46;;;;;;;4.97;3.65;;;;;;;;;;5073720;28;20056;-85
2022/10/23 00:34:13;;;;;;;2.05;1.95;;;;;;;;;;5073819;28;20106;-84
2022/10/23 00:36:39;;;;;;;4.50;4.25;;;;;;;;;;5072320;28;20504;-84
2022/10/23 00:39:06;;;;;;;2.60;2.40;;;;;;;;;;5073638;28;20109;-84
2022/10/23 00:41:32;;;;;;;2.88;2.08;;;;;;;;;;5072751;28;20105;-84
2022/10/23 00:44:04;;;;;;;3.15;2.95;;;;;;;;;;5073274;28;20105;-84
2022/10/23 00:46:31;;;;;;;2.45;2.20;;;;;;;;;;5073113;28;20496;-84
2022/10/23 00:48:59;;;;;;;3.50;3.15;;;;;;;;;;5073500;28;20056;-84
2022/10/23 00:51:27;;;;;;;2.50;1.80;;;;;;;;;;5072096;28;20476;-85
2022/10/23 00:53:56;;;;;;;2.78;1.83;;;;;;;;;;5073155;28;20550;-84
2022/10/23 00:56:23;;;;;;;2.47;1.88;;;;;;;;;;5072686;28;20044;-84
2022/10/23 00:58:49;;;;;;;2.13;1.92;;;;;;;;;;5073097;28;20052;-84
2022/10/23 01:01:17;;;;;;;3.03;2.42;;;;;;;;;;5072933;28;20444;-85
2022/10/23 01:03:43;;;;;;;3.78;2.83;;;;;;;;;;5073140;28;20470;-85
2022/10/23 01:06:15;;;;;;;2.40;2.25;;;;;;;;;;5072604;28;20525;-85
2022/10/23 01:08:47;;;;;;;4.85;3.42;;;;;;;;;;5072152;28;20098;-85
2022/10/23 01:11:15;;;;;;;2.50;2.17;;;;;;;;;;5072538;28;20111;-85
2022/10/23 01:13:44;;;;;;;4.15;3.85;;;;;;;;;;5072852;28;20117;-85
2022/10/23 01:16:13;;;;;;;2.75;2.15;;;;;;;;;;5072577;28;20052;-84
2022/10/23 01:18:41;;;;;;;4.30;4.00;;;;;;;;;;5072556;28;20094;-85
2022/10/23 01:21:10;;;;;;;2.10;1.98;;;;;;;;;;5072472;28;20101;-85
2022/10/23 01:23:44;;;;;;;1.77;1.65;;;;;;;;;;5072744;28;20052;-85
2022/10/23 01:26:18;;;;;;;2.60;2.35;;;;;;;;;;5071500;28;20086;-85
2022/10/23 01:28:48;;;;;;;3.20;2.42;;;;;;;;;;5072696;28;20052;-85
2022/10/23 01:31:17;;;;;;;4.07;3.55;;;;;;;;;;5072097;28;20488;-85
2022/10/23 01:33:46;;;;;;;3.83;2.92;;;;;;;;;;5072458;28;20057;-85
2022/10/23 01:36:14;;;;;;;3.45;2.83;;;;;;;;;;5071905;28;20105;-85
2022/10/23 01:38:42;;;;;;;3.17;2.88;;;;;;;;;;5072211;28;20052;-85
2022/10/23 01:41:11;;;;;;;2.30;2.10;;;;;;;;;;5069349;28;20060;-85
2022/10/23 01:43:41;;;;;;;3.00;1.98;;;;;;;;;;5052423;28;20091;-86
2022/10/23 01:46:13;;;;;;;2.15;2.03;;;;;;;;;;5052134;28;20471;-85
2022/10/23 01:48:41;;;;;;;3.25;2.70;;;;;;;;;;5052285;28;20049;-85
2022/10/23 01:51:09;;;;;;;3.92;3.63;;;;;;;;;;5052180;28;20098;-85
2022/10/23 01:53:40;;;;;;;2.38;2.20;;;;;;;;;;5051402;28;20570;-84
2022/10/23 01:56:08;;;;;;;2.63;2.42;;;;;;;;;;5052129;28;20056;-84
2022/10/23 01:58:36;;;;;;;5.75;3.47;;;;;;;;;;5052016;28;20535;-84
2022/10/23 02:01:03;;;;;;;3.15;2.95;;;;;;;;;;5069289;28;20106;-85
2022/10/23 02:03:33;;;;;;;2.72;2.45;;;;;;;;;;5071931;28;20052;-85
2022/10/23 02:05:59;;;;;;;3.45;3.25;;;;;;;;;;5071758;28;20049;-85
2022/10/23 02:08:26;;;;;;;3.35;3.08;;;;;;;;;;5071729;28;20481;-85
2022/10/23 02:10:56;;;;;;;3.67;2.10;;;;;;;;;;5071932;28;20056;-85
2022/10/23 02:13:25;;;;;;;2.50;1.92;;;;;;;;;;5071461;28;20044;-84
2022/10/23 02:15:57;;;;;;;5.10;4.70;;;;;;;;;;5070896;28;20048;-85
2022/10/23 02:18:27;;;;;;;2.88;2.50;;;;;;;;;;5071431;28;20056;-85
2022/10/23 02:20:56;;;;;;;5.28;3.72;;;;;;;;;;5072004;28;20098;-85
2022/10/23 02:23:29;;;;;;;3.15;1.33;;;;;;;;;;5052958;28;20049;-85
2022/10/23 02:25:57;;;;;;;4.68;4.28;;;;;;;;;;5051558;28;20056;-84
2022/10/23 02:28:27;;;;;;;3.00;2.83;;;;;;;;;;5051702;28;20045;-85
2022/10/23 02:30:54;;;;;;;2.85;2.65;;;;;;;;;;5051652;28;20493;-85
2022/10/23 02:33:21;;;;;;;4.30;2.20;;;;;;;;;;5054572;28;20048;-85
2022/10/23 02:35:48;;;;;;;3.47;3.17;;;;;;;;;;5071626;28;20098;-85
2022/10/23 02:38:29;;;;;;;3.30;3.08;;;;;;;;;;5071264;28;20045;-85
2022/10/23 02:40:56;;;;;;;3.88;3.58;;;;;;;;;;5071575;28;20109;-85
2022/10/23 02:43:24;;;;;;;3.65;3.10;;;;;;;;;;5071699;28;20056;-85
2022/10/23 02:45:55;;;;;;;2.25;2.05;;;;;;;;;;5071372;28;20048;-85
2022/10/23 02:48:23;;;;;;;2.92;2.00;;;;;;;;;;5071360;28;20044;-85
2022/10/23 02:50:52;;;;;;;4.30;3.00;;;;;;;;;;5070739;28;20056;-85
2022/10/23 02:53:21;;;;;;;2.90;2.65;;;;;;;;;;5071184;28;20103;-86
2022/10/23 02:55:56;;;;;;;3.13;2.75;;;;;;;;;;5071498;28;20105;-85
2022/10/23 02:58:26;;;;;;;4.65;4.25;;;;;;;;;;5071256;28;20102;-85
2022/10/23 03:00:55;;;;;;;3.92;2.70;;;;;;;;;;5071478;28;20052;-85
2022/10/23 03:03:24;;;;;;;4.68;4.28;;;;;;;;;;5071363;28;20052;-85
2022/10/23 03:05:51;;;;;;;3.22;3.03;;;;;;;;;;5073083;28;20413;-85
2022/10/23 03:08:17;;;;;;;4.32;3.75;;;;;;;;;;5075046;28;20090;-85
2022/10/23 03:10:43;;;;;;;3.38;3.13;;;;;;;;;;5075212;28;20557;-85
2022/10/23 03:13:11;;;;;;;5.50;3.03;;;;;;;;;;5075201;28;20075;-84
2022/10/23 03:15:38;;;;;;;1.58;1.45;;;;;;;;;;5075164;28;20044;-85
2022/10/23 03:18:04;;;;;;;2.95;2.75;;;;;;;;;;5074570;28;20064;-85
2022/10/23 03:20:31;;;;;;;3.55;3.33;;;;;;;;;;5074983;28;20053;-84
2022/10/23 03:22:57;;;;;;;1.88;1.77;;;;;;;;;;5073657;28;20040;-84
2022/10/23 03:25:24;;;;;;;2.65;2.35;;;;;;;;;;5074870;28;20393;-85
2022/10/23 03:27:50;;;;;;;4.68;4.28;;;;;;;;;;5064488;28;20053;-85
2022/10/23 03:30:18;;;;;;;3.80;3.47;;;;;;;;;;5054822;28;20053;-84
2022/10/23 03:32:45;;;;;;;3.08;2.88;;;;;;;;;;5054918;28;20057;-84
2022/10/23 03:35:11;;;;;;;2.45;2.33;;;;;;;;;;5054619;28;20041;-85
2022/10/23 03:37:38;;;;;;;3.35;3.13;;;;;;;;;;5054635;28;20106;-85
2022/10/23 03:40:05;;;;;;;4.30;3.28;;;;;;;;;;5057606;28;20040;-84
2022/10/23 03:42:31;;;;;;;2.33;2.22;;;;;;;;;;5074408;28;20510;-84
2022/10/23 03:44:58;;;;;;;2.65;2.40;;;;;;;;;;5074741;28;20048;-84
2022/10/23 03:47:26;;;;;;;3.30;3.00;;;;;;;;;;5074259;28;20071;-83
2022/10/23 03:49:52;;;;;;;3.50;3.30;;;;;;;;;;5074382;28;20106;-85
2022/10/23 03:52:19;;;;;;;3.13;2.95;;;;;;;;;;5073281;28;20044;-86
2022/10/23 03:54:45;;;;;;;2.08;1.98;;;;;;;;;;5063033;28;20098;-85
2022/10/23 03:57:12;;;;;;;3.03;1.90;;;;;;;;;;5062442;28;20045;-85
2022/10/23 03:59:38;;;;;;;3.78;3.35;;;;;;;;;;5063544;28;20048;-85
2022/10/23 04:02:05;;;;;;;3.55;3.25;;;;;;;;;;5063298;28;20052;-85
2022/10/23 04:04:33;;;;;;;2.95;2.75;;;;;;;;;;5064210;28;20048;-85
2022/10/23 04:06:59;;;;;;;2.47;2.28;;;;;;;;;;5063221;28;20041;-85
2022/10/23 04:09:26;;;;;;;3.63;2.72;;;;;;;;;;5064714;28;20040;-86
2022/10/23 04:11:52;;;;;;;3.08;2.80;;;;;;;;;;5063483;28;20118;-85
2022/10/23 04:14:19;;;;;;;1.60;1.50;;;;;;;;;;5064805;28;20094;-85
2022/10/23 04:16:45;;;;;;;3.35;2.78;;;;;;;;;;5062235;28;20455;-85
2022/10/23 04:19:12;;;;;;;3.25;2.97;;;;;;;;;;5065128;28;20041;-85
2022/10/23 04:21:39;;;;;;;6.15;5.57;;;;;;;;;;5062393;28;20045;-84
2022/10/23 04:24:06;;;;;;;3.78;3.45;;;;;;;;;;5065235;28;20107;-84
2022/10/23 04:26:33;;;;;;;2.92;2.70;;;;;;;;;;5061765;28;20113;-85
2022/10/23 04:28:59;;;;;;;5.65;4.20;;;;;;;;;;5072725;28;20451;-85
2022/10/23 04:31:26;;;;;;;4.50;2.75;;;;;;;;;;5073845;28;20466;-85
2022/10/23 04:33:52;;;;;;;2.53;2.40;;;;;;;;;;5073465;28;20089;-85
2022/10/23 04:36:19;;;;;;;5.32;3.58;;;;;;;;;;5073586;28;20052;-85
2022/10/23 04:38:47;;;;;;;3.58;3.38;;;;;;;;;;5073242;28;20048;-85
2022/10/23 04:41:14;;;;;;;2.20;2.05;;;;;;;;;;5072662;28;20044;-86
2022/10/23 04:43:40;;;;;;;3.88;3.15;;;;;;;;;;5073132;28;20052;-86
2022/10/23 04:46:07;;;;;;;2.80;2.60;;;;;;;;;;5073523;28;20484;-86
2022/10/23 04:48:33;;;;;;;7.28;3.42;;;;;;;;;;5071846;28;20049;-86
2022/10/23 04:51:02;;;;;;;2.45;2.30;;;;;;;;;;5056192;28;20106;-84
2022/10/23 04:53:29;;;;;;;4.22;3.80;;;;;;;;;;5064080;28;20496;-84
2022/10/23 04:55:57;;;;;;;4.07;3.20;;;;;;;;;;5073365;28;20106;-83
2022/10/23 04:58:25;;;;;;;3.17;2.90;;;;;;;;;;5065297;28;20045;-84
2022/10/23 05:00:52;;;;;;;4.25;3.78;;;;;;;;;;5059327;28;20118;-85
2022/10/23 05:03:19;;;;;;;4.82;3.22;;;;;;;;;;5061885;28;20106;-85
2022/10/23 05:05:45;;;;;;;3.00;2.00;;;;;;;;;;5072823;28;20052;-85
2022/10/23 05:08:12;;;;;;;3.97;1.90;;;;;;;;;;5072858;28;20094;-85
2022/10/23 05:10:40;;;;;;;2.40;2.25;;;;;;;;;;5073156;28;20049;-85
2022/10/23 05:13:08;;;;;;;2.20;2.05;;;;;;;;;;5072517;28;20053;-85
2022/10/23 05:15:34;;;;;;;2.38;2.17;;;;;;;;;;5071894;28;20048;-85
2022/10/23 05:18:04;;;;;;;4.40;4.13;;;;;;;;;;5072235;28;20045;-85
2022/10/23 05:20:33;;;;;;;4.22;3.92;;;;;;;;;;5072815;28;20461;-85
2022/10/23 05:23:00;;;;;;;3.92;3.63;;;;;;;;;;5072496;28;20045;-85
2022/10/23 05:25:27;;;;;;;2.97;2.80;;;;;;;;;;5072727;28;20470;-85
2022/10/23 05:27:53;;;;;;;3.92;3.47;;;;;;;;;;5072255;28;20044;-85
2022/10/23 05:30:21;;;;;;;2.88;2.67;;;;;;;;;;5071555;28;20545;-85
2022/10/23 05:32:48;;;;;;;2.33;1.67;;;;;;;;;;5072515;28;20063;-84
2022/10/23 05:35:16;;;;;;;4.18;3.78;;;;;;;;;;5072575;28;20052;-85
2022/10/23 05:37:43;;;;;;;3.00;2.80;;;;;;;;;;5061720;28;20474;-85
2022/10/23 05:40:10;;;;;;;1.90;1.73;;;;;;;;;;5052492;28;20056;-85
2022/10/23 05:42:37;;;;;;;9.43;3.00;;;;;;;;;;5052283;28;20099;-85
2022/10/23 05:45:04;;;;;;;3.63;3.33;;;;;;;;;;5052187;28;20098;-85
2022/10/23 05:47:31;;;;;;;4.78;4.32;;;;;;;;;;5059246;28;20052;-85
2022/10/23 05:49:58;;;;;;;2.00;1.85;;;;;;;;;;5052185;28;20057;-85
2022/10/23 05:52:24;;;;;;;3.20;3.00;;;;;;;;;;5060052;28;20631;-85
2022/10/23 05:54:51;;;;;;;3.22;1.70;;;;;;;;;;5057300;28;20118;-84
2022/10/23 05:57:18;;;;;;;3.58;3.28;;;;;;;;;;5052116;28;20479;-85
2022/10/23 05:59:44;;;;;;;4.53;2.72;;;;;;;;;;5069640;28;20060;-85
2022/10/23 06:02:11;;;;;;;6.13;3.70;;;;;;;;;;5071468;28;20101;-85
2022/10/23 06:04:38;;;;;;;2.60;2.47;;;;;;;;;;5071846;28;20542;-85
2022/10/23 06:07:05;;;;;;;3.15;2.95;;;;;;;;;;5071970;28;20048;-85
2022/10/23 06:09:32;;;;;;;3.45;3.25;;;;;;;;;;5071630;28;20045;-85
2022/10/23 06:11:58;;;;;;;3.78;3.33;;;;;;;;;;5071719;28;20487;-85
2022/10/23 06:14:24;;;;;;;4.32;3.22;;;;;;;;;;5065501;28;20052;-86
2022/10/23 06:16:51;;;;;;;3.85;3.58;;;;;;;;;;5071025;28;20044;-86
2022/10/23 06:19:17;;;;;;;4.28;3.30;;;;;;;;;;5057818;28;20489;-86
2022/10/23 06:21:45;;;;;;;5.53;5.05;;;;;;;;;;5068962;28;20053;-86
2022/10/23 06:24:12;;;;;;;3.20;3.00;;;;;;;;;;5061586;28;20053;-85
2022/10/23 06:26:38;;;;;;;3.22;2.78;;;;;;;;;;5051373;28;20053;-85
2022/10/23 06:29:05;;;;;;;3.20;3.00;;;;;;;;;;5061472;28;20129;-86
2022/10/23 06:31:31;;;;;;;2.22;2.10;;;;;;;;;;5063524;28;20508;-86
2022/10/23 06:33:58;;;;;;;5.43;4.93;;;;;;;;;;5061239;28;20052;-86
2022/10/23 06:36:25;;;;;;;5.75;5.25;;;;;;;;;;5061781;28;20056;-86
2022/10/23 06:38:55;;;;;;;7.35;6.32;;;;;;;;;;5062632;28;20041;-86
2022/10/23 06:41:21;;;;;;;4.68;3.97;;;;;;;;;;5056591;28;20061;-86
2022/10/23 06:43:48;;;;;;;6.25;5.65;;;;;;;;;;5064501;28;20117;-86
2022/10/23 06:46:15;;;;;;;6.88;6.28;;;;;;;;;;5078113;28;20121;-86
2022/10/23 06:48:42;;;;;;;8.38;5.18;;;;;;;;;;5077619;28;20048;-86
2022/10/23 06:51:09;;;;;;;3.63;3.33;;;;;;;;;;5078010;28;20087;-86
2022/10/23 06:53:36;;;;;;;13.00;6.43;;;;;;;;;;5076640;28;20056;-86
2022/10/23 06:56:04;;;;;;;10.45;7.03;;;;;;;;;;5077572;28;20121;-86
2022/10/23 06:58:31;;;;;;;7.70;7.03;;;;;;;;;;5077177;28;20089;-86
2022/10/23 07:01:00;;;;;;;5.60;4.90;;;;;;;;;;5077594;28;20488;-86
2022/10/23 07:03:26;;;;;;;4.55;4.15;;;;;;;;;;5077455;28;20044;-85
2022/10/23 07:05:53;;;;;;;9.73;6.20;;;;;;;;;;5077302;28;20052;-85
2022/10/23 07:08:20;;;;;;;5.85;5.30;;;;;;;;;;5065878;28;20095;-85
2022/10/23 07:10:47;;;;;;;9.88;7.13;;;;;;;;;;5059702;28;20045;-85
2022/10/23 07:13:15;;;;;;;7.85;6.00;;;;;;;;;;5077168;28;20476;-85
2022/10/23 07:15:42;;;;;;;8.38;5.55;;;;;;;;;;5077527;28;20415;-85
2022/10/23 07:18:13;;;;;;;7.20;6.60;;;;;;;;;;5077069;28;20048;-84
2022/10/23 07:20:39;;;;;;;8.57;6.28;;;;;;;;;;5077621;28;20049;-83
2022/10/23 07:23:06;;;;;;;7.22;6.35;;;;;;;;;;5077933;28;20446;-84
2022/10/23 07:25:32;;;;;;;6.57;5.80;;;;;;;;;;5076865;28;20064;-83
2022/10/23 07:27:59;;;;;;;5.90;5.28;;;;;;;;;;5075061;28;20159;-83
2022/10/23 07:30:27;;;;;;;6.68;6.00;;;;;;;;;;5077134;28;20106;-83
2022/10/23 07:32:53;;;;;;;10.25;6.57;;;;;;;;;;5077367;28;20048;-83
2022/10/23 07:35:20;;;;;;;10.93;5.32;;;;;;;;;;5077245;28;20121;-84
2022/10/23 07:37:47;;;;;;;7.85;6.00;;;;;;;;;;5076999;28;20044;-84
2022/10/23 07:40:14;;;;;;;11.50;7.60;;;;;;;;;;5060578;28;20492;-84
2022/10/23 07:42:40;;;;;;;8.15;5.40;;;;;;;;;;5058958;28;20052;-84
2022/10/23 07:45:07;;;;;;;9.45;8.18;;;;;;;;;;5077033;28;20553;-84
2022/10/23 07:47:35;;;;;;;8.02;5.68;;;;;;;;;;5077212;28;20094;-84
2022/10/23 07:50:02;;;;;;;6.95;4.97;;;;;;;;;;5076972;28;20110;-84
2022/10/23 07:52:28;;;;;;;5.78;5.03;;;;;;;;;;5073137;28;20052;-84
2022/10/23 07:54:55;;;;;;;6.45;5.65;;;;;;;;;;5073559;28;20056;-83
2022/10/23 07:57:22;;;;;;;3.80;3.30;;;;;;;;;;5073596;28;20049;-83
2022/10/23 07:59:48;;;;;;;6.75;6.25;;;;;;;;;;5073770;28;20052;-83
2022/10/23 08:02:15;;;;;;;5.28;4.15;;;;;;;;;;5073065;28;20499;-83
2022/10/23 08:04:43;;;;;;;12.52;6.32;;;;;;;;;;5073416;28;20049;-83
2022/10/23 08:07:10;;;;;;;5.72;5.22;;;;;;;;;;5073963;28;20044;-84
2022/10/23 08:09:36;;;;;;;8.13;4.82;;;;;;;;;;5073056;28;20443;-84
2022/10/23 08:12:03;;;;;;;6.05;5.00;;;;;;;;;;5073827;28;20127;-84
2022/10/23 08:14:30;;;;;;;7.20;6.07;;;;;;;;;;5073313;28;20036;-84
2022/10/23 08:16:56;;;;;;;5.90;4.47;;;;;;;;;;5072567;28;20048;-84
2022/10/23 08:19:23;;;;;;;8.57;5.85;;;;;;;;;;5073172;28;20040;-84
2022/10/23 08:21:53;;;;;;;5.72;5.28;;;;;;;;;;5072882;28;20043;-84
2022/10/23 08:24:20;;;;;;;6.97;6.05;;;;;;;;;;5073212;28;20040;-84
2022/10/23 08:26:48;;;;;;;6.35;5.85;;;;;;;;;;5073297;28;20052;-84
2022/10/23 08:29:14;;;;;;;6.47;5.88;;;;;;;;;;5072974;28;20090;-84
2022/10/23 08:31:41;;;;;;;6.45;5.75;;;;;;;;;;5073758;28;20040;-83
2022/10/23 08:34:07;;;;;;;7.97;5.28;;;;;;;;;;5072143;28;20071;-83
2022/10/23 08:36:35;;;;;;;6.80;6.10;;;;;;;;;;5073652;28;20048;-84
2022/10/23 08:39:03;;;;;;;7.80;5.60;;;;;;;;;;5072871;28;20076;-83
2022/10/23 08:41:30;;;;;;;5.70;5.20;;;;;;;;;;5073296;28;20052;-83
2022/10/23 08:44:01;;;;;;;8.07;4.60;;;;;;;;;;5072835;28;20098;-83
2022/10/23 08:46:29;;;;;;;5.57;5.05;;;;;;;;;;5069138;28;20130;-84
2022/10/23 08:49:02;;;;;;;6.90;6.20;;;;;;;;;;5070500;28;20546;-84
2022/10/23 08:51:32;;;;;;;8.48;6.50;;;;;;;;;;5072808;28;20049;-84
2022/10/23 08:54:00;;;;;;;4.32;4.07;;;;;;;;;;5072209;28;20484;-86
2022/10/23 08:56:31;;;;;;;6.45;5.57;;;;;;;;;;5072846;28;20109;-85
2022/10/23 08:59:04;;;;;;;6.03;5.45;;;;;;;;;;5072356;28;20423;-85
2022/10/23 09:01:36;;;;;;;7.13;6.50;;;;;;;;;;5065479;28;20131;-85
2022/10/23 09:04:03;;;;;;;6.80;6.28;;;;;;;;;;5054110;28;20049;-86
2022/10/23 09:06:33;;;;;;;8.73;6.55;;;;;;;;;;5071700;28;20053;-86
2022/10/23 09:09:06;;;;;;;6.03;5.55;;;;;;;;;;5071978;28;20052;-87
2022/10/23 09:11:38;;;;;;;5.68;5.18;;;;;;;;;;5072133;28;20049;-86
2022/10/23 09:14:28;;;;;;;6.35;5.30;;;;;;;;;;5071928;28;20492;-87
2022/10/23 09:17:03;;;;;;;4.53;4.13;;;;;;;;;;5071649;28;20045;-85
2022/10/23 09:19:30;;;;;;;4.90;4.50;;;;;;;;;;5072086;28;20040;-85
2022/10/23 09:21:57;;;;;;;6.78;5.45;;;;;;;;;;5071601;28;20456;-85
2022/10/23 09:24:25;;;;;;;9.75;8.80;;;;;;;;;;5071581;28;20056;-85
2022/10/23 09:26:53;;;;;;;5.45;4.97;;;;;;;;;;5071919;28;20049;-85
2022/10/23 09:29:23;;;;;;;7.60;6.88;;;;;;;;;;5072001;28;20055;-85
2022/10/23 09:31:51;;;;;;;5.85;5.30;;;;;;;;;;5072183;28;20139;-86
2022/10/23 09:34:19;;;;;;;4.78;4.38;;;;;;;;;;5072141;28;20053;-86
2022/10/23 09:36:49;;;;;;;8.68;5.22;;;;;;;;;;5071113;28;20534;-85
2022/10/23 09:39:21;;;;;;;7.68;6.97;;;;;;;;;;5069325;28;20365;-85
2022/10/23 09:41:47;;;;;;;5.20;4.72;;;;;;;;;;5052082;28;20122;-85
2022/10/23 09:44:18;;;;;;;6.15;4.95;;;;;;;;;;5052000;28;20115;-86
2022/10/23 09:46:46;;;;;;;4.88;4.38;;;;;;;;;;5051972;28;20056;-85
2022/10/23 09:49:17;;;;;;;5.60;5.10;;;;;;;;;;5052177;28;20118;-86
2022/10/23 09:51:51;;;;;;;4.82;4.25;;;;;;;;;;5051869;28;20144;-86
2022/10/23 09:54:20;;;;;;;6.35;4.78;;;;;;;;;;5070788;28;20052;-85
2022/10/23 09:56:48;;;;;;;6.88;6.25;;;;;;;;;;5071713;28;20048;-85
2022/10/23 09:59:21;;;;;;;6.80;6.00;;;;;;;;;;5057760;28;20045;-86
2022/10/23 10:01:49;;;;;;;6.43;5.85;;;;;;;;;;5051625;28;20048;-86
2022/10/23 10:04:16;;;;;;;6.53;5.93;;;;;;;;;;5051416;28;20060;-86
2022/10/23 10:06:42;;;;;;;10.75;5.30;;;;;;;;;;5051574;28;20190;-86
2022/10/23 10:09:12;;;;;;;7.22;5.80;;;;;;;;;;5056193;28;20044;-86
2022/10/23 10:11:41;;;;;;;6.78;5.75;;;;;;;;;;5071012;28;20114;-86
2022/10/23 10:14:35;;;;;;;6.40;5.38;;;;;;;;;;5070303;28;20507;-87
2022/10/23 10:17:05;;;;;;;6.22;5.65;;;;;;;;;;5071429;28;20048;-85
2022/10/23 10:19:36;;;;;;;5.72;5.22;;;;;;;;;;5070533;28;20488;-86
2022/10/23 10:22:07;;;;;;;9.63;6.70;;;;;;;;;;5070757;28;20166;-86
2022/10/23 10:24:37;;;;;;;10.65;6.45;;;;;;;;;;5058502;28;20130;-86
2022/10/23 10:27:05;;;;;;;6.07;5.47;;;;;;;;;;5061490;28;20048;-86
2022/10/23 10:29:39;;;;;;;10.00;8.00;;;;;;;;;;5058729;28;20386;-86
2022/10/23 10:32:16;;;;;;;7.43;6.72;;;;;;;;;;5061507;28;20389;-86
2022/10/23 10:34:46;;;;;;;7.65;6.95;;;;;;;;;;5059722;28;20053;-86
2022/10/23 10:37:19;;;;;;;8.52;7.72;;;;;;;;;;5070527;28;20106;-87
2022/10/23 10:39:47;;;;;;;7.50;6.32;;;;;;;;;;5068129;28;20074;-86
2022/10/23 10:42:21;;;;;;;7.97;6.68;;;;;;;;;;5065649;28;20102;-87
2022/10/23 10:45:00;;;;;;;5.60;5.20;;;;;;;;;;5071182;28;20049;-86
2022/10/23 10:47:32;;;;;;;7.25;6.00;;;;;;;;;;5071151;28;20059;-86
2022/10/23 10:50:03;;;;;;;6.65;6.05;;;;;;;;;;5070925;28;20044;-87
2022/10/23 10:52:33;;;;;;;6.82;6.15;;;;;;;;;;5070628;28;20048;-87
2022/10/23 10:55:02;;;;;;;8.52;5.50;;;;;;;;;;5070803;28;20562;-87
2022/10/23 10:57:31;;;;;;;4.50;4.18;;;;;;;;;;5070109;28;20060;-88
2022/10/23 11:00:00;;;;;;;6.75;4.57;;;;;;;;;;5070732;28;20048;-87
2022/10/23 11:02:28;;;;;;;6.82;6.43;;;;;;;;;;5070102;28;20045;-88
2022/10/23 11:04:57;;;;;;;8.05;4.97;;;;;;;;;;5070034;28;20045;-86
2022/10/23 11:07:26;;;;;;;6.13;5.82;;;;;;;;;;5070851;28;20053;-88
2022/10/23 11:09:53;;;;;;;4.13;3.83;;;;;;;;;;5070538;28;20096;-88
2022/10/23 11:12:21;;;;;;;6.35;5.85;;;;;;;;;;5070786;28;20049;-87
2022/10/23 11:14:48;;;;;;;4.82;4.53;;;;;;;;;;5069867;28;20053;-88
2022/10/23 11:17:18;;;;;;;5.97;5.57;;;;;;;;;;5070914;28;20126;-88
2022/10/23 11:19:45;;;;;;;;;;;;;;;;;;5071118;28;20111;-88
2022/10/23 11:22:16;;;;;;;6.75;5.82;;;;;;;;;;5070742;28;19970;-87
2022/10/23 11:25:03;;;;;;;5.30;5.00;;;;;;;;;;5071145;28;20052;-88
2022/10/23 11:27:51;;;;;;;5.15;4.82;;;;;;;;;;5069012;28;20052;-87
2022/10/23 11:30:22;;;;;;;5.53;5.22;;;;;;;;;;5048301;28;20462;-87
2022/10/23 11:32:57;;;;;;;5.32;4.93;;;;;;;;;;5073852;28;20052;-87
2022/10/23 11:35:41;;;;;;;5.15;4.85;;;;;;;;;;5074168;28;20113;-87
2022/10/23 11:38:13;;;;;;;3.90;3.42;;;;;;;;;;5073793;28;20048;-87
2022/10/23 11:40:43;;;;;;;4.90;3.90;;;;;;;;;;5074023;28;20137;-88
2022/10/23 11:43:10;;;;;;;3.70;3.40;;;;;;;;;;5074528;28;20052;-87
2022/10/23 11:45:38;;;;;;;4.38;4.07;;;;;;;;;;5074063;28;20102;-88
2022/10/23 11:48:06;;;;;;;5.35;5.05;;;;;;;;;;5074133;28;20060;-87
2022/10/23 11:50:34;;;;;;;6.95;6.55;;;;;;;;;;5073159;28;20060;-87
2022/10/23 11:53:09;;;;;;;5.53;5.20;;;;;;;;;;5073604;28;20118;-87
2022/10/23 11:55:36;;;;;;;4.18;3.97;;;;;;;;;;5073532;28;20048;-87
2022/10/23 11:58:11;;;;;;;4.47;4.18;;;;;;;;;;5070905;28;20204;-87
2022/10/23 12:00:40;;;;;;;4.40;3.95;;;;;;;;;;5063420;28;20114;-87
2022/10/23 12:03:18;;;;;;;5.55;5.20;;;;;;;;;;5061972;28;20106;-87
2022/10/23 12:05:45;;;;;;;5.47;5.13;;;;;;;;;;5058940;28;20056;-87
2022/10/23 12:08:19;;;;;;;7.43;6.88;;;;;;;;;;5053457;28;20049;-87
2022/10/23 12:10:49;;;;;;;5.47;5.15;;;;;;;;;;5053213;28;20451;-87
2022/10/23 12:13:28;;;;;;;7.95;5.82;;;;;;;;;;5053672;28;20053;-87
2022/10/23 12:15:54;;;;;;;8.18;7.75;;;;;;;;;;5053438;28;20106;-88
2022/10/23 12:18:22;;;;;;;5.10;4.80;;;;;;;;;;5053305;28;20756;-88
2022/10/23 12:20:51;;;;;;;6.20;5.80;;;;;;;;;;5052742;28;20542;-85
2022/10/23 12:23:27;;;;;;;5.93;5.38;;;;;;;;;;5053111;28;20104;-86
2022/10/23 12:26:10;;;;;;;6.68;6.35;;;;;;;;;;5053321;28;20095;-86
2022/10/23 12:28:39;;;;;;;4.95;4.65;;;;;;;;;;5053784;28;20052;-86
2022/10/23 12:31:16;;;;;;;10.25;9.43;;;;;;;;;;5053207;28;20045;-85
2022/10/23 12:33:42;;;;;;;;;;;;;;;;;;5053886;28;20562;-85
2022/10/23 12:36:21;;;;;;;4.82;4.53;;;;;;;;;;5052640;28;20438;-86
2022/10/23 12:38:48;;;;;;;5.78;5.47;;;;;;;;;;5052578;28;20382;-86
2022/10/23 12:41:16;;;;;;;4.20;3.97;;;;;;;;;;5052660;28;20677;-85
2022/10/23 12:43:43;;;;;;;4.43;4.13;;;;;;;;;;5052948;28;20562;-86
2022/10/23 12:46:21;;;;;;;4.07;3.70;;;;;;;;;;5052955;28;20475;-86
2022/10/23 12:48:48;;;;;;;7.65;7.13;;;;;;;;;;5052991;28;20049;-85
2022/10/23 12:51:20;;;;;;;5.68;5.38;;;;;;;;;;5052697;28;20041;-85
2022/10/23 12:53:48;;;;;;;5.10;4.80;;;;;;;;;;5052879;28;20049;-85
2022/10/23 12:56:15;;;;;;;4.65;4.45;;;;;;;;;;5052179;28;20573;-86
2022/10/23 12:58:47;;;;;;;4.43;4.13;;;;;;;;;;5052809;28;20045;-86
2022/10/23 13:01:21;;;;;;;5.97;5.60;;;;;;;;;;5052683;28;20493;-86
2022/10/23 13:03:48;;;;;;;4.70;4.40;;;;;;;;;;5052807;28;20111;-86
2022/10/23 13:06:15;;;;;;;4.18;3.97;;;;;;;;;;5052242;28;20106;-85
2022/10/23 13:08:44;;;;;;;4.13;3.92;;;;;;;;;;5052842;28;20045;-85
2022/10/23 13:11:14;;;;;;;5.20;4.85;;;;;;;;;;5052404;28;20052;-85
2022/10/23 13:13:41;;;;;;;6.63;6.22;;;;;;;;;;5051787;28;20390;-85
2022/10/23 13:16:13;;;;;;;8.40;7.80;;;;;;;;;;5052490;28;20041;-86
2022/10/23 13:18:40;;;;;;;6.55;6.25;;;;;;;;;;5052320;28;20075;-85
2022/10/23 13:21:10;;;;;;;6.35;5.95;;;;;;;;;;5051928;28;20514;-84
2022/10/23 13:23:40;;;;;;;6.13;5.80;;;;;;;;;;5052178;28;20099;-84
2022/10/23 13:26:24;;;;;;;6.95;4.30;;;;;;;;;;5051990;28;20416;-86
2022/10/23 13:28:50;;;;;;;5.82;5.53;;;;;;;;;;5052270;28;20649;-86
2022/10/23 13:31:29;;;;;;;6.97;6.53;;;;;;;;;;5063986;28;20455;-85
2022/10/23 13:34:13;;;;;;;6.05;5.65;;;;;;;;;;5072212;28;20056;-86
2022/10/23 13:36:48;;;;;;;10.15;9.55;;;;;;;;;;5071325;28;20048;-86
2022/10/23 13:39:16;;;;;;;4.65;4.32;;;;;;;;;;5071183;28;20060;-85
2022/10/23 13:41:45;;;;;;;5.38;4.90;;;;;;;;;;5063344;28;20045;-85
2022/10/23 13:44:12;;;;;;;6.18;5.78;;;;;;;;;;5052192;28;20452;-84
2022/10/23 13:46:39;;;;;;;6.13;5.72;;;;;;;;;;5051567;28;20110;-86
2022/10/23 13:49:05;;;;;;;4.35;4.10;;;;;;;;;;5058004;28;20201;-87
2022/10/23 13:51:34;;;;;;;5.32;5.10;;;;;;;;;;5064837;28;20041;-88
2022/10/23 13:54:01;;;;;;;8.38;7.88;;;;;;;;;;5051424;28;20056;-87
2022/10/23 13:56:27;;;;;;;5.38;4.97;;;;;;;;;;5067799;28;20494;-89
2022/10/23 13:58:55;;;;;;;5.40;5.10;;;;;;;;;;5071959;28;20110;-87
2022/10/23 14:01:23;;;;;;;5.57;3.83;;;;;;;;;;5072594;28;20043;-87
2022/10/23 14:03:49;;;;;;;7.47;7.07;;;;;;;;;;5082438;28;20388;-87
2022/10/23 14:06:16;;;;;;;5.55;5.25;;;;;;;;;;5064650;28;20052;-86
2022/10/23 14:08:43;;;;;;;5.28;4.95;;;;;;;;;;5065433;28;20056;-87
2022/10/23 14:11:10;;;;;;;6.30;5.90;;;;;;;;;;5071634;28;20061;-87
2022/10/23 14:13:36;;;;;;;6.30;5.90;;;;;;;;;;5071714;28;20049;-86
2022/10/23 14:16:04;;;;;;;5.60;5.25;;;;;;;;;;5071260;28;20492;-86
2022/10/23 14:18:31;;;;;;;4.40;2.50;;;;;;;;;;5071211;28;20052;-86
2022/10/23 14:20:59;;;;;;;4.60;4.30;;;;;;;;;;5070362;28;20110;-86
2022/10/23 14:23:26;;;;;;;3.90;3.53;;;;;;;;;;5050892;28;20056;-86
2022/10/23 14:25:52;;;;;;;4.57;4.32;;;;;;;;;;5051483;28;20091;-86
2022/10/23 14:28:19;;;;;;;8.98;4.03;;;;;;;;;;5051439;28;20053;-87
2022/10/23 14:30:45;;;;;;;3.85;3.55;;;;;;;;;;5054329;28;20117;-86
2022/10/23 14:33:13;;;;;;;3.47;3.28;;;;;;;;;;5053301;28;20049;-86
2022/10/23 14:35:42;;;;;;;5.60;5.28;;;;;;;;;;5053250;28;20049;-86
2022/10/23 14:38:08;;;;;;;3.63;3.35;;;;;;;;;;5067524;28;20048;-86
2022/10/23 14:40:36;;;;;;;5.63;5.32;;;;;;;;;;5070380;28;20852;-86
2022/10/23 14:43:03;;;;;;;4.20;3.92;;;;;;;;;;5071074;28;20106;-86
2022/10/23 14:45:29;;;;;;;4.32;4.03;;;;;;;;;;5071378;28;20098;-88
2022/10/23 14:47:56;;;;;;;3.28;3.08;;;;;;;;;;5071068;28;20090;-86
2022/10/23 14:50:24;;;;;;;3.72;3.45;;;;;;;;;;5070819;28;20106;-87
2022/10/23 14:52:50;;;;;;;4.35;4.00;;;;;;;;;;5070790;28;20114;-86